sensor_id;sensor_type;location;lat;lon;timestamp;pressure;altitude;pressure_sealevel;temperature;humidity
81352;BME280;70809;52.184;13.422;2024-03-08T00:00:38;102057.19;;;-0.18;77.00
81352;BME280;70809;52.184;13.422;2024-03-08T00:01:39;102054.50;;;-0.20;77.36
81352;BME280;70809;52.184;13.422;2024-03-08T00:02:41;102061.91;;;-0.24;76.83
81352;BME280;70809;52.184;13.422;2024-03-08T00:03:44;102058.06;;;-0.30;77.07
81352;BME280;70809;52.184;13.422;2024-03-08T00:04:46;102056.78;;;-0.35;76.79
81352;BME280;70809;52.184;13.422;2024-03-08T00:05:48;102052.31;;;-0.47;76.80
81352;BME280;70809;52.184;13.422;2024-03-08T00:06:50;102056.19;;;-0.64;76.76
81352;BME280;70809;52.184;13.422;2024-03-08T00:07:51;102060.81;;;-0.82;77.28
81352;BME280;70809;52.184;13.422;2024-03-08T00:08:53;102045.19;;;-1.04;77.84
81352;BME280;70809;52.184;13.422;2024-03-08T00:09:54;102059.25;;;-1.22;79.25
81352;BME280;70809;52.184;13.422;2024-03-08T00:10:56;102055.94;;;-1.42;80.02
81352;BME280;70809;52.184;13.422;2024-03-08T00:11:58;102046.63;;;-1.50;80.54
81352;BME280;70809;52.184;13.422;2024-03-08T00:12:59;102050.00;;;-1.51;80.38
81352;BME280;70809;52.184;13.422;2024-03-08T00:14:01;102040.78;;;-1.47;81.39
81352;BME280;70809;52.184;13.422;2024-03-08T00:15:03;102048.41;;;-1.39;80.54
81352;BME280;70809;52.184;13.422;2024-03-08T00:16:05;102053.34;;;-1.31;80.75
81352;BME280;70809;52.184;13.422;2024-03-08T00:17:07;102042.91;;;-1.21;80.48
81352;BME280;70809;52.184;13.422;2024-03-08T00:18:08;102049.66;;;-1.13;80.41
81352;BME280;70809;52.184;13.422;2024-03-08T00:19:10;102037.31;;;-1.05;79.99
81352;BME280;70809;52.184;13.422;2024-03-08T00:20:13;102046.06;;;-0.93;80.19
81352;BME280;70809;52.184;13.422;2024-03-08T00:21:15;102046.81;;;-0.84;79.93
81352;BME280;70809;52.184;13.422;2024-03-08T00:22:17;102045.72;;;-0.76;79.41
81352;BME280;70809;52.184;13.422;2024-03-08T00:23:19;102041.94;;;-0.69;78.92
81352;BME280;70809;52.184;13.422;2024-03-08T00:24:20;102041.66;;;-0.62;78.79
81352;BME280;70809;52.184;13.422;2024-03-08T00:25:22;102041.88;;;-0.59;78.53
81352;BME280;70809;52.184;13.422;2024-03-08T00:26:24;102044.16;;;-0.52;78.01
81352;BME280;70809;52.184;13.422;2024-03-08T00:27:25;102034.03;;;-0.49;78.11
81352;BME280;70809;52.184;13.422;2024-03-08T00:28:27;102043.91;;;-0.45;77.91
81352;BME280;70809;52.184;13.422;2024-03-08T00:29:28;102040.88;;;-0.39;77.85
81352;BME280;70809;52.184;13.422;2024-03-08T00:30:30;102042.00;;;-0.36;77.98
81352;BME280;70809;52.184;13.422;2024-03-08T00:31:32;102037.59;;;-0.37;77.57
81352;BME280;70809;52.184;13.422;2024-03-08T00:32:33;102040.31;;;-0.35;76.99
81352;BME280;70809;52.184;13.422;2024-03-08T00:33:35;102038.69;;;-0.45;76.67
81352;BME280;70809;52.184;13.422;2024-03-08T00:34:37;102037.59;;;-0.59;77.27
81352;BME280;70809;52.184;13.422;2024-03-08T00:35:40;102041.66;;;-0.62;77.61
81352;BME280;70809;52.184;13.422;2024-03-08T00:36:42;102035.97;;;-0.68;77.24
81352;BME280;70809;52.184;13.422;2024-03-08T00:37:43;102034.41;;;-0.66;77.61
81352;BME280;70809;52.184;13.422;2024-03-08T00:38:45;102031.13;;;-0.64;77.45
81352;BME280;70809;52.184;13.422;2024-03-08T00:39:47;102035.56;;;-0.63;77.53
81352;BME280;70809;52.184;13.422;2024-03-08T00:40:48;102028.13;;;-0.58;77.68
81352;BME280;70809;52.184;13.422;2024-03-08T00:41:50;102031.34;;;-0.50;77.27
81352;BME280;70809;52.184;13.422;2024-03-08T00:42:51;102027.28;;;-0.47;77.04
81352;BME280;70809;52.184;13.422;2024-03-08T00:43:53;102039.50;;;-0.46;77.51
81352;BME280;70809;52.184;13.422;2024-03-08T00:44:54;102032.03;;;-0.41;77.27
81352;BME280;70809;52.184;13.422;2024-03-08T00:45:56;102031.72;;;-0.46;76.70
81352;BME280;70809;52.184;13.422;2024-03-08T00:46:58;102030.00;;;-0.45;77.01
81352;BME280;70809;52.184;13.422;2024-03-08T00:47:59;102031.03;;;-0.43;77.07
81352;BME280;70809;52.184;13.422;2024-03-08T00:49:01;102033.84;;;-0.40;76.77
81352;BME280;70809;52.184;13.422;2024-03-08T00:50:03;102031.41;;;-0.39;76.88
81352;BME280;70809;52.184;13.422;2024-03-08T00:51:07;102025.31;;;-0.39;77.03
81352;BME280;70809;52.184;13.422;2024-03-08T00:52:09;102030.78;;;-0.46;77.33
81352;BME280;70809;52.184;13.422;2024-03-08T00:53:10;102029.03;;;-0.58;77.11
81352;BME280;70809;52.184;13.422;2024-03-08T00:54:12;102030.38;;;-0.63;77.42
81352;BME280;70809;52.184;13.422;2024-03-08T00:55:14;102032.28;;;-0.82;77.39
81352;BME280;70809;52.184;13.422;2024-03-08T00:56:15;102036.16;;;-0.77;78.12
81352;BME280;70809;52.184;13.422;2024-03-08T00:57:17;102034.22;;;-0.79;78.18
81352;BME280;70809;52.184;13.422;2024-03-08T00:58:18;102038.72;;;-0.77;78.75
81352;BME280;70809;52.184;13.422;2024-03-08T00:59:20;102039.53;;;-0.78;78.84
81352;BME280;70809;52.184;13.422;2024-03-08T01:00:21;102034.22;;;-0.79;78.04
81352;BME280;70809;52.184;13.422;2024-03-08T01:01:23;102033.78;;;-0.96;78.10
81352;BME280;70809;52.184;13.422;2024-03-08T01:02:25;102031.56;;;-0.91;78.94
81352;BME280;70809;52.184;13.422;2024-03-08T01:03:27;102034.72;;;-1.05;78.57
81352;BME280;70809;52.184;13.422;2024-03-08T01:04:28;102028.41;;;-1.19;78.99
81352;BME280;70809;52.184;13.422;2024-03-08T01:05:30;102036.72;;;-1.23;80.23
81352;BME280;70809;52.184;13.422;2024-03-08T01:06:33;102035.72;;;-1.46;80.53
81352;BME280;70809;52.184;13.422;2024-03-08T01:07:35;102042.00;;;-1.64;80.82
81352;BME280;70809;52.184;13.422;2024-03-08T01:08:36;102034.22;;;-1.74;82.09
81352;BME280;70809;52.184;13.422;2024-03-08T01:09:38;102040.97;;;-1.76;82.32
81352;BME280;70809;52.184;13.422;2024-03-08T01:10:40;102033.59;;;-1.72;82.65
81352;BME280;70809;52.184;13.422;2024-03-08T01:11:41;102030.06;;;-1.62;82.59
81352;BME280;70809;52.184;13.422;2024-03-08T01:12:43;102027.63;;;-1.61;82.93
81352;BME280;70809;52.184;13.422;2024-03-08T01:13:44;102024.59;;;-1.55;83.52
81352;BME280;70809;52.184;13.422;2024-03-08T01:14:46;102027.66;;;-1.39;82.88
81352;BME280;70809;52.184;13.422;2024-03-08T01:15:48;102022.47;;;-1.28;82.30
81352;BME280;70809;52.184;13.422;2024-03-08T01:16:50;102017.75;;;-1.12;82.71
81352;BME280;70809;52.184;13.422;2024-03-08T01:17:51;102016.19;;;-1.10;81.49
81352;BME280;70809;52.184;13.422;2024-03-08T01:18:53;102016.56;;;-1.05;81.78
81352;BME280;70809;52.184;13.422;2024-03-08T01:19:55;102015.72;;;-0.94;81.87
81352;BME280;70809;52.184;13.422;2024-03-08T01:20:57;102016.91;;;-0.91;81.15
81352;BME280;70809;52.184;13.422;2024-03-08T01:22:00;102014.00;;;-0.84;81.35
81352;BME280;70809;52.184;13.422;2024-03-08T01:23:01;102010.88;;;-0.79;80.76
81352;BME280;70809;52.184;13.422;2024-03-08T01:24:03;102015.50;;;-0.75;80.18
81352;BME280;70809;52.184;13.422;2024-03-08T01:25:06;102014.97;;;-0.71;80.44
81352;BME280;70809;52.184;13.422;2024-03-08T01:26:07;102018.94;;;-0.65;80.58
81352;BME280;70809;52.184;13.422;2024-03-08T01:27:09;102012.84;;;-0.65;79.63
81352;BME280;70809;52.184;13.422;2024-03-08T01:28:11;102008.47;;;-0.66;79.47
81352;BME280;70809;52.184;13.422;2024-03-08T01:29:12;102000.13;;;-0.62;79.44
81352;BME280;70809;52.184;13.422;2024-03-08T01:30:14;102002.06;;;-0.60;79.41
81352;BME280;70809;52.184;13.422;2024-03-08T01:31:16;101998.81;;;-0.57;78.79
81352;BME280;70809;52.184;13.422;2024-03-08T01:32:17;101998.94;;;-0.56;79.09
81352;BME280;70809;52.184;13.422;2024-03-08T01:33:19;101999.03;;;-0.54;78.76
81352;BME280;70809;52.184;13.422;2024-03-08T01:34:20;102010.44;;;-0.52;78.79
81352;BME280;70809;52.184;13.422;2024-03-08T01:35:22;101993.97;;;-0.52;78.56
81352;BME280;70809;52.184;13.422;2024-03-08T01:36:24;101996.06;;;-0.59;77.41
81352;BME280;70809;52.184;13.422;2024-03-08T01:37:27;102000.41;;;-0.69;77.85
81352;BME280;70809;52.184;13.422;2024-03-08T01:38:28;101998.13;;;-0.76;78.01
81352;BME280;70809;52.184;13.422;2024-03-08T01:39:30;101992.81;;;-0.78;77.68
81352;BME280;70809;52.184;13.422;2024-03-08T01:40:32;101993.84;;;-0.76;78.14
81352;BME280;70809;52.184;13.422;2024-03-08T01:41:33;101988.00;;;-0.73;77.76
81352;BME280;70809;52.184;13.422;2024-03-08T01:42:35;101987.44;;;-0.69;77.97
81352;BME280;70809;52.184;13.422;2024-03-08T01:43:36;101986.97;;;-0.75;77.69
81352;BME280;70809;52.184;13.422;2024-03-08T01:44:38;101994.81;;;-0.86;77.13
81352;BME280;70809;52.184;13.422;2024-03-08T01:45:40;101986.81;;;-0.99;77.80
81352;BME280;70809;52.184;13.422;2024-03-08T01:46:41;101987.91;;;-1.07;77.53
81352;BME280;70809;52.184;13.422;2024-03-08T01:47:43;101989.66;;;-1.18;77.80
81352;BME280;70809;52.184;13.422;2024-03-08T01:48:45;101991.06;;;-1.21;78.11
81352;BME280;70809;52.184;13.422;2024-03-08T01:49:47;101975.59;;;-1.31;78.65
81352;BME280;70809;52.184;13.422;2024-03-08T01:50:49;101976.41;;;-1.43;79.51
81352;BME280;70809;52.184;13.422;2024-03-08T01:51:51;101980.31;;;-1.48;79.38
81352;BME280;70809;52.184;13.422;2024-03-08T01:52:54;101972.22;;;-1.41;79.28
81352;BME280;70809;52.184;13.422;2024-03-08T01:53:56;101974.00;;;-1.29;79.63
81352;BME280;70809;52.184;13.422;2024-03-08T01:54:59;101970.34;;;-1.21;79.32
81352;BME280;70809;52.184;13.422;2024-03-08T01:56:03;101975.25;;;-1.14;79.61
81352;BME280;70809;52.184;13.422;2024-03-08T01:57:05;101964.88;;;-1.14;79.36
81352;BME280;70809;52.184;13.422;2024-03-08T01:58:09;101965.63;;;-1.15;79.32
81352;BME280;70809;52.184;13.422;2024-03-08T01:59:11;101964.22;;;-1.12;78.99
81352;BME280;70809;52.184;13.422;2024-03-08T02:00:13;101964.47;;;-1.09;79.08
81352;BME280;70809;52.184;13.422;2024-03-08T02:01:15;101965.13;;;-1.11;78.79
81352;BME280;70809;52.184;13.422;2024-03-08T02:02:17;101957.75;;;-1.17;78.95
81352;BME280;70809;52.184;13.422;2024-03-08T02:03:19;101967.09;;;-1.19;78.86
81352;BME280;70809;52.184;13.422;2024-03-08T02:04:21;101963.47;;;-1.21;79.12
81352;BME280;70809;52.184;13.422;2024-03-08T02:05:23;101962.44;;;-1.23;78.61
81352;BME280;70809;52.184;13.422;2024-03-08T02:06:24;101969.31;;;-1.23;79.04
81352;BME280;70809;52.184;13.422;2024-03-08T02:07:26;101958.28;;;-1.21;79.12
81352;BME280;70809;52.184;13.422;2024-03-08T02:08:29;101959.44;;;-1.17;80.04
81352;BME280;70809;52.184;13.422;2024-03-08T02:09:30;101961.25;;;-1.16;79.75
81352;BME280;70809;52.184;13.422;2024-03-08T02:10:32;101969.81;;;-1.17;79.56
81352;BME280;70809;52.184;13.422;2024-03-08T02:11:34;101963.31;;;-1.12;79.52
81352;BME280;70809;52.184;13.422;2024-03-08T02:12:36;101956.00;;;-1.06;79.97
81352;BME280;70809;52.184;13.422;2024-03-08T02:13:38;101959.50;;;-1.05;79.70
81352;BME280;70809;52.184;13.422;2024-03-08T02:14:40;101965.22;;;-1.10;80.06
81352;BME280;70809;52.184;13.422;2024-03-08T02:15:52;101966.66;;;-1.03;78.98
81352;BME280;70809;52.184;13.422;2024-03-08T02:16:53;101956.91;;;-1.05;78.89
81352;BME280;70809;52.184;13.422;2024-03-08T02:17:55;101959.63;;;-1.04;79.32
81352;BME280;70809;52.184;13.422;2024-03-08T02:18:56;101967.41;;;-1.04;78.91
81352;BME280;70809;52.184;13.422;2024-03-08T02:19:58;101956.81;;;-1.07;78.28
81352;BME280;70809;52.184;13.422;2024-03-08T02:21:03;101957.81;;;-1.05;79.22
81352;BME280;70809;52.184;13.422;2024-03-08T02:22:06;101955.13;;;-1.07;79.42
81352;BME280;70809;52.184;13.422;2024-03-08T02:23:08;101949.81;;;-1.08;79.96
81352;BME280;70809;52.184;13.422;2024-03-08T02:24:09;101947.97;;;-1.09;79.82
81352;BME280;70809;52.184;13.422;2024-03-08T02:25:11;101951.34;;;-1.10;79.94
81352;BME280;70809;52.184;13.422;2024-03-08T02:26:13;101947.50;;;-1.15;79.35
81352;BME280;70809;52.184;13.422;2024-03-08T02:27:15;101953.72;;;-1.13;79.50
81352;BME280;70809;52.184;13.422;2024-03-08T02:28:17;101954.09;;;-1.09;80.02
81352;BME280;70809;52.184;13.422;2024-03-08T02:29:19;101956.28;;;-1.03;79.29
81352;BME280;70809;52.184;13.422;2024-03-08T02:30:21;101955.13;;;-1.07;79.84
81352;BME280;70809;52.184;13.422;2024-03-08T02:31:23;101955.22;;;-1.05;79.39
81352;BME280;70809;52.184;13.422;2024-03-08T02:32:25;101950.03;;;-1.05;79.46
81352;BME280;70809;52.184;13.422;2024-03-08T02:33:28;101948.78;;;-1.10;78.83
81352;BME280;70809;52.184;13.422;2024-03-08T02:34:31;101951.34;;;-1.10;78.78
81352;BME280;70809;52.184;13.422;2024-03-08T02:35:33;101948.78;;;-1.10;79.34
81352;BME280;70809;52.184;13.422;2024-03-08T02:36:36;101946.75;;;-1.14;79.27
81352;BME280;70809;52.184;13.422;2024-03-08T02:37:37;101952.56;;;-1.17;79.90
81352;BME280;70809;52.184;13.422;2024-03-08T02:38:39;101947.25;;;-1.18;79.36
81352;BME280;70809;52.184;13.422;2024-03-08T02:39:40;101942.09;;;-1.18;79.87
81352;BME280;70809;52.184;13.422;2024-03-08T02:40:42;101944.16;;;-1.14;79.35
81352;BME280;70809;52.184;13.422;2024-03-08T02:41:44;101947.06;;;-1.10;79.51
81352;BME280;70809;52.184;13.422;2024-03-08T02:42:45;101942.25;;;-1.05;79.71
81352;BME280;70809;52.184;13.422;2024-03-08T02:43:47;101945.94;;;-1.13;79.09
81352;BME280;70809;52.184;13.422;2024-03-08T02:44:48;101947.16;;;-1.20;79.44
81352;BME280;70809;52.184;13.422;2024-03-08T02:45:50;101945.47;;;-1.19;78.94
81352;BME280;70809;52.184;13.422;2024-03-08T02:46:52;101944.56;;;-1.20;79.06
81352;BME280;70809;52.184;13.422;2024-03-08T02:47:54;101942.78;;;-1.31;79.20
81352;BME280;70809;52.184;13.422;2024-03-08T02:48:55;101949.94;;;-1.39;78.76
81352;BME280;70809;52.184;13.422;2024-03-08T02:49:57;101939.97;;;-1.44;79.56
81352;BME280;70809;52.184;13.422;2024-03-08T02:50:59;101944.50;;;-1.42;79.90
81352;BME280;70809;52.184;13.422;2024-03-08T02:52:02;101944.22;;;-1.35;79.35
81352;BME280;70809;52.184;13.422;2024-03-08T02:53:04;101939.28;;;-1.31;79.33
81352;BME280;70809;52.184;13.422;2024-03-08T02:54:05;101943.69;;;-1.30;79.74
81352;BME280;70809;52.184;13.422;2024-03-08T02:55:08;101950.78;;;-1.28;78.98
81352;BME280;70809;52.184;13.422;2024-03-08T02:56:14;101949.41;;;-1.35;79.25
81352;BME280;70809;52.184;13.422;2024-03-08T02:57:15;101941.53;;;-1.46;79.40
81352;BME280;70809;52.184;13.422;2024-03-08T02:58:17;101945.81;;;-1.47;79.40
81352;BME280;70809;52.184;13.422;2024-03-08T02:59:18;101936.38;;;-1.46;79.57
81352;BME280;70809;52.184;13.422;2024-03-08T03:00:20;101945.03;;;-1.46;79.06
81352;BME280;70809;52.184;13.422;2024-03-08T03:01:22;101943.88;;;-1.49;78.83
81352;BME280;70809;52.184;13.422;2024-03-08T03:02:24;101937.69;;;-1.51;79.49
81352;BME280;70809;52.184;13.422;2024-03-08T03:03:25;101942.97;;;-1.50;79.85
81352;BME280;70809;52.184;13.422;2024-03-08T03:04:27;101933.50;;;-1.49;80.52
81352;BME280;70809;52.184;13.422;2024-03-08T03:05:29;101937.25;;;-1.46;79.57
81352;BME280;70809;52.184;13.422;2024-03-08T03:06:31;101936.75;;;-1.42;79.12
81352;BME280;70809;52.184;13.422;2024-03-08T03:07:34;101935.16;;;-1.40;79.16
81352;BME280;70809;52.184;13.422;2024-03-08T03:08:35;101925.84;;;-1.38;79.95
81352;BME280;70809;52.184;13.422;2024-03-08T03:09:37;101928.06;;;-1.42;79.65
81352;BME280;70809;52.184;13.422;2024-03-08T03:10:39;101933.78;;;-1.46;79.21
81352;BME280;70809;52.184;13.422;2024-03-08T03:11:44;101937.53;;;-1.43;79.85
81352;BME280;70809;52.184;13.422;2024-03-08T03:12:45;101934.94;;;-1.43;79.61
81352;BME280;70809;52.184;13.422;2024-03-08T03:13:47;101927.28;;;-1.41;79.89
81352;BME280;70809;52.184;13.422;2024-03-08T03:14:49;101923.84;;;-1.62;79.13
81352;BME280;70809;52.184;13.422;2024-03-08T03:15:50;101931.03;;;-1.80;79.37
81352;BME280;70809;52.184;13.422;2024-03-08T03:16:52;101938.28;;;-1.86;79.87
81352;BME280;70809;52.184;13.422;2024-03-08T03:17:53;101936.59;;;-1.85;80.43
81352;BME280;70809;52.184;13.422;2024-03-08T03:18:55;101927.53;;;-1.80;80.37
81352;BME280;70809;52.184;13.422;2024-03-08T03:19:57;101926.34;;;-1.74;80.93
81352;BME280;70809;52.184;13.422;2024-03-08T03:20:58;101928.41;;;-1.70;80.17
81352;BME280;70809;52.184;13.422;2024-03-08T03:22:01;101930.47;;;-1.66;80.12
81352;BME280;70809;52.184;13.422;2024-03-08T03:23:05;101928.00;;;-1.64;80.44
81352;BME280;70809;52.184;13.422;2024-03-08T03:24:07;101922.94;;;-1.63;80.55
81352;BME280;70809;52.184;13.422;2024-03-08T03:25:09;101922.81;;;-1.64;80.19
81352;BME280;70809;52.184;13.422;2024-03-08T03:26:10;101926.84;;;-1.68;80.58
81352;BME280;70809;52.184;13.422;2024-03-08T03:27:12;101918.19;;;-1.78;80.96
81352;BME280;70809;52.184;13.422;2024-03-08T03:28:13;101921.84;;;-1.76;80.86
81352;BME280;70809;52.184;13.422;2024-03-08T03:29:15;101927.44;;;-1.92;80.36
81352;BME280;70809;52.184;13.422;2024-03-08T03:30:17;101928.09;;;-2.15;81.13
81352;BME280;70809;52.184;13.422;2024-03-08T03:31:19;101923.06;;;-2.14;82.04
81352;BME280;70809;52.184;13.422;2024-03-08T03:32:20;101928.63;;;-2.09;82.38
81352;BME280;70809;52.184;13.422;2024-03-08T03:33:22;101927.81;;;-1.98;81.55
81352;BME280;70809;52.184;13.422;2024-03-08T03:34:24;101922.50;;;-1.89;81.80
81352;BME280;70809;52.184;13.422;2024-03-08T03:35:26;101927.28;;;-1.83;81.00
81352;BME280;70809;52.184;13.422;2024-03-08T03:36:28;101921.44;;;-1.81;81.01
81352;BME280;70809;52.184;13.422;2024-03-08T03:37:30;101926.25;;;-1.85;81.19
81352;BME280;70809;52.184;13.422;2024-03-08T03:38:33;101931.81;;;-2.01;81.35
81352;BME280;70809;52.184;13.422;2024-03-08T03:39:34;101924.34;;;-1.98;81.32
81352;BME280;70809;52.184;13.422;2024-03-08T03:40:36;101929.00;;;-2.04;80.63
81352;BME280;70809;52.184;13.422;2024-03-08T03:41:38;101924.97;;;-2.01;80.90
81352;BME280;70809;52.184;13.422;2024-03-08T03:42:40;101925.50;;;-1.95;80.98
81352;BME280;70809;52.184;13.422;2024-03-08T03:43:42;101933.88;;;-1.87;81.66
81352;BME280;70809;52.184;13.422;2024-03-08T03:44:44;101923.78;;;-1.84;80.74
81352;BME280;70809;52.184;13.422;2024-03-08T03:45:46;101925.59;;;-1.83;80.74
81352;BME280;70809;52.184;13.422;2024-03-08T03:46:47;101929.34;;;-1.90;81.12
81352;BME280;70809;52.184;13.422;2024-03-08T03:47:49;101939.19;;;-1.96;81.68
81352;BME280;70809;52.184;13.422;2024-03-08T03:48:51;101932.22;;;-1.97;81.69
81352;BME280;70809;52.184;13.422;2024-03-08T03:49:52;101933.13;;;-1.96;81.30
81352;BME280;70809;52.184;13.422;2024-03-08T03:50:54;101934.56;;;-2.10;81.89
81352;BME280;70809;52.184;13.422;2024-03-08T03:51:56;101930.56;;;-2.17;82.58
81352;BME280;70809;52.184;13.422;2024-03-08T03:52:57;101926.69;;;-2.22;82.18
81352;BME280;70809;52.184;13.422;2024-03-08T03:54:00;101936.16;;;-2.12;82.11
81352;BME280;70809;52.184;13.422;2024-03-08T03:55:02;101931.72;;;-2.03;82.34
81352;BME280;70809;52.184;13.422;2024-03-08T03:56:04;101930.41;;;-1.98;82.20
81352;BME280;70809;52.184;13.422;2024-03-08T03:57:06;101930.16;;;-2.01;82.47
81352;BME280;70809;52.184;13.422;2024-03-08T03:58:07;101939.75;;;-2.00;82.63
81352;BME280;70809;52.184;13.422;2024-03-08T03:59:09;101933.78;;;-2.09;82.34
81352;BME280;70809;52.184;13.422;2024-03-08T04:00:11;101930.16;;;-2.01;82.32
81352;BME280;70809;52.184;13.422;2024-03-08T04:01:14;101936.50;;;-1.97;82.57
81352;BME280;70809;52.184;13.422;2024-03-08T04:02:16;101937.78;;;-2.02;82.57
81352;BME280;70809;52.184;13.422;2024-03-08T04:03:18;101929.25;;;-2.01;81.84
81352;BME280;70809;52.184;13.422;2024-03-08T04:04:20;101934.03;;;-1.96;82.03
81352;BME280;70809;52.184;13.422;2024-03-08T04:05:21;101930.81;;;-1.93;81.68
81352;BME280;70809;52.184;13.422;2024-03-08T04:06:23;101934.53;;;-1.90;81.48
81352;BME280;70809;52.184;13.422;2024-03-08T04:07:25;101929.72;;;-1.85;81.77
81352;BME280;70809;52.184;13.422;2024-03-08T04:08:26;101936.72;;;-1.84;81.22
81352;BME280;70809;52.184;13.422;2024-03-08T04:09:29;101937.88;;;-1.80;80.79
81352;BME280;70809;52.184;13.422;2024-03-08T04:10:31;101931.13;;;-1.78;80.59
81352;BME280;70809;52.184;13.422;2024-03-08T04:11:33;101930.63;;;-1.74;81.11
81352;BME280;70809;52.184;13.422;2024-03-08T04:12:34;101927.25;;;-1.73;80.50
81352;BME280;70809;52.184;13.422;2024-03-08T04:13:36;101933.47;;;-1.71;80.26
81352;BME280;70809;52.184;13.422;2024-03-08T04:14:38;101930.63;;;-1.74;79.81
81352;BME280;70809;52.184;13.422;2024-03-08T04:15:40;101934.50;;;-1.79;80.82
81352;BME280;70809;52.184;13.422;2024-03-08T04:16:42;101925.84;;;-1.80;81.10
81352;BME280;70809;52.184;13.422;2024-03-08T04:17:43;101929.22;;;-1.81;80.12
81352;BME280;70809;52.184;13.422;2024-03-08T04:18:45;101930.69;;;-1.95;80.70
81352;BME280;70809;52.184;13.422;2024-03-08T04:19:47;101934.41;;;-2.01;80.88
81352;BME280;70809;52.184;13.422;2024-03-08T04:20:48;101923.72;;;-2.06;81.58
81352;BME280;70809;52.184;13.422;2024-03-08T04:21:50;101925.28;;;-2.28;81.96
81352;BME280;70809;52.184;13.422;2024-03-08T04:22:52;101928.91;;;-2.26;81.40
81352;BME280;70809;52.184;13.422;2024-03-08T04:23:53;101921.13;;;-2.16;81.58
81352;BME280;70809;52.184;13.422;2024-03-08T04:24:56;101920.22;;;-2.06;81.01
81352;BME280;70809;52.184;13.422;2024-03-08T04:25:58;101924.47;;;-2.07;80.28
81352;BME280;70809;52.184;13.422;2024-03-08T04:26:59;101923.06;;;-2.14;80.28
81352;BME280;70809;52.184;13.422;2024-03-08T04:28:01;101927.31;;;-2.14;81.17
81352;BME280;70809;52.184;13.422;2024-03-08T04:29:03;101929.69;;;-2.27;80.51
81352;BME280;70809;52.184;13.422;2024-03-08T04:30:05;101929.94;;;-2.34;81.70
81352;BME280;70809;52.184;13.422;2024-03-08T04:31:07;101920.63;;;-2.32;81.34
81352;BME280;70809;52.184;13.422;2024-03-08T04:32:10;101917.53;;;-2.28;82.33
81352;BME280;70809;52.184;13.422;2024-03-08T04:33:12;101920.63;;;-2.32;82.15
81352;BME280;70809;52.184;13.422;2024-03-08T04:34:14;101911.84;;;-2.34;82.25
81352;BME280;70809;52.184;13.422;2024-03-08T04:35:16;101918.31;;;-2.29;82.82
81352;BME280;70809;52.184;13.422;2024-03-08T04:36:17;101920.84;;;-2.19;82.66
81352;BME280;70809;52.184;13.422;2024-03-08T04:37:19;101910.00;;;-2.15;81.83
81352;BME280;70809;52.184;13.422;2024-03-08T04:38:23;101908.56;;;-2.11;81.81
81352;BME280;70809;52.184;13.422;2024-03-08T04:39:24;101908.03;;;-2.07;81.34
81352;BME280;70809;52.184;13.422;2024-03-08T04:40:27;101913.09;;;-2.09;81.10
81352;BME280;70809;52.184;13.422;2024-03-08T04:41:29;101909.22;;;-2.14;81.30
81352;BME280;70809;52.184;13.422;2024-03-08T04:42:31;101903.41;;;-2.22;80.73
81352;BME280;70809;52.184;13.422;2024-03-08T04:43:33;101906.50;;;-2.36;80.90
81352;BME280;70809;52.184;13.422;2024-03-08T04:44:36;101911.81;;;-2.45;81.41
81352;BME280;70809;52.184;13.422;2024-03-08T04:45:37;101912.59;;;-2.46;81.93
81352;BME280;70809;52.184;13.422;2024-03-08T04:46:39;101925.66;;;-2.44;81.41
81352;BME280;70809;52.184;13.422;2024-03-08T04:47:40;101912.22;;;-2.50;82.10
81352;BME280;70809;52.184;13.422;2024-03-08T04:48:42;101915.31;;;-2.54;82.15
81352;BME280;70809;52.184;13.422;2024-03-08T04:49:44;101919.16;;;-2.70;82.57
81352;BME280;70809;52.184;13.422;2024-03-08T04:50:46;101921.50;;;-2.73;83.46
81352;BME280;70809;52.184;13.422;2024-03-08T04:51:47;101921.66;;;-2.61;83.08
81352;BME280;70809;52.184;13.422;2024-03-08T04:52:49;101926.94;;;-2.59;83.08
81352;BME280;70809;52.184;13.422;2024-03-08T04:53:50;101920.63;;;-2.63;83.08
81352;BME280;70809;52.184;13.422;2024-03-08T04:54:52;101922.94;;;-2.56;83.58
81352;BME280;70809;52.184;13.422;2024-03-08T04:55:55;101922.28;;;-2.53;82.50
81352;BME280;70809;52.184;13.422;2024-03-08T04:56:57;101919.34;;;-2.58;82.74
81352;BME280;70809;52.184;13.422;2024-03-08T04:57:58;101928.75;;;-2.48;82.55
81352;BME280;70809;52.184;13.422;2024-03-08T04:59:00;101925.16;;;-2.50;82.43
81352;BME280;70809;52.184;13.422;2024-03-08T05:00:02;101913.50;;;-2.45;82.72
81352;BME280;70809;52.184;13.422;2024-03-08T05:01:04;101925.00;;;-2.42;82.57
81352;BME280;70809;52.184;13.422;2024-03-08T05:02:05;101914.03;;;-2.39;82.82
81352;BME280;70809;52.184;13.422;2024-03-08T05:03:07;101919.59;;;-2.34;82.22
81352;BME280;70809;52.184;13.422;2024-03-08T05:04:08;101918.16;;;-2.31;81.73
81352;BME280;70809;52.184;13.422;2024-03-08T05:05:11;101917.53;;;-2.28;81.72
81352;BME280;70809;52.184;13.422;2024-03-08T05:06:12;101915.94;;;-2.26;81.69
81352;BME280;70809;52.184;13.422;2024-03-08T05:07:14;101918.41;;;-2.28;80.99
81352;BME280;70809;52.184;13.422;2024-03-08T05:08:15;101914.66;;;-2.31;81.53
81352;BME280;70809;52.184;13.422;2024-03-08T05:09:17;101908.69;;;-2.30;80.94
81352;BME280;70809;52.184;13.422;2024-03-08T05:10:19;101913.13;;;-2.29;81.34
81352;BME280;70809;52.184;13.422;2024-03-08T05:11:22;101910.78;;;-2.26;81.13
81352;BME280;70809;52.184;13.422;2024-03-08T05:12:23;101920.22;;;-2.27;81.01
81352;BME280;70809;52.184;13.422;2024-03-08T05:13:25;101909.22;;;-2.24;81.81
81352;BME280;70809;52.184;13.422;2024-03-08T05:14:26;101904.94;;;-2.24;81.43
81352;BME280;70809;52.184;13.422;2024-03-08T05:15:28;101910.25;;;-2.22;81.15
81352;BME280;70809;52.184;13.422;2024-03-08T05:16:30;101905.59;;;-2.26;80.80
81352;BME280;70809;52.184;13.422;2024-03-08T05:17:31;101917.00;;;-2.34;81.40
81352;BME280;70809;52.184;13.422;2024-03-08T05:18:33;101916.22;;;-2.44;81.46
81352;BME280;70809;52.184;13.422;2024-03-08T05:19:36;101913.38;;;-2.57;81.49